Observation data for Post on 07/05/2020      Previous  Date  Next       Current Mesonet Observations  Soil Data  Daily Summary Page  Observations in Plain Language
KPT1 050500Z 05002KT 24/16 A2996 RMK A01 T02440164  RH  064%=      5-min Rain = 0
KPT1 050505Z 06002KT 25/17 A2995 RMK A01 T02450165  RH  064%=      5-min Rain = 0
KPT1 050510Z 06003KT 25/17 A2995 RMK A01 T02460165  RH  064%=      5-min Rain = 0
KPT1 050515Z 05002KT 25/17 A2995 RMK A01 T02450165  RH  064%=      5-min Rain = 0
KPT1 050520Z 04002KT 24/17 A2995 RMK A01 T02440165  RH  064%=      5-min Rain = 0
KPT1 050525Z 35002KT 24/16 A2995 RMK A01 T02440164  RH  064%=      5-min Rain = 0
KPT1 050530Z 02002KT 24/16 A2995 RMK A01 T02430164  RH  064%=      5-min Rain = 0
KPT1 050535Z 01001KT 24/16 A2995 RMK A01 T02440164  RH  064%=      5-min Rain = 0
KPT1 050540Z 35002KT 24/16 A2995 RMK A01 T02420164  RH  065%=      5-min Rain = 0
KPT1 050545Z 34003KT 24/17 A2995 RMK A01 T02370166  RH  068%=      5-min Rain = 0
KPT1 050550Z 34004KT 23/17 A2995 RMK A01 T02330166  RH  069%=      5-min Rain = 0
KPT1 050555Z 34005KT 23/17 A2996 RMK A01 T02320168  RH  071%=      5-min Rain = 0
KPT1 050600Z 34004KT 23/17 A2996 RMK A01 T02310169  RH  072%=      5-min Rain = 0
KPT1 050605Z 35004KT 23/17 A2996 RMK A01 T02320169  RH  071%=      5-min Rain = 0
KPT1 050610Z 00004KT 23/17 A2996 RMK A01 T02340168  RH  070%=      5-min Rain = 0
KPT1 050615Z 01005KT 23/17 A2996 RMK A01 T02340167  RH  070%=      5-min Rain = 0
KPT1 050620Z 01005KT 23/17 A2996 RMK A01 T02340167  RH  069%=      5-min Rain = 0
KPT1 050625Z 02005KT 23/17 A2996 RMK A01 T02320166  RH  070%=      5-min Rain = 0
KPT1 050630Z 02003KT 23/17 A2996 RMK A01 T02310166  RH  070%=      5-min Rain = 0
KPT1 050635Z 01003KT 23/17 A2996 RMK A01 T02320166  RH  070%=      5-min Rain = 0
KPT1 050640Z 02004KT 23/17 A2996 RMK A01 T02300166  RH  070%=      5-min Rain = 0
KPT1 050645Z 01003KT 23/17 A2996 RMK A01 T02290166  RH  071%=      5-min Rain = 0
KPT1 050650Z 36004KT 23/17 A2996 RMK A01 T02280166  RH  071%=      5-min Rain = 0
KPT1 050655Z 33004KT 23/17 A2997 RMK A01 T02250166  RH  073%=      5-min Rain = 0
KPT1 050700Z 34004KT 22/17 A2997 RMK A01 T02230169  RH  075%=      5-min Rain = 0
KPT1 050705Z 35004KT 22/17 A2997 RMK A01 T02240169  RH  075%=      5-min Rain = 0
KPT1 050710Z 35005KT 23/17 A2997 RMK A01 T02270168  RH  073%=      5-min Rain = 0
KPT1 050715Z 35005KT 23/17 A2997 RMK A01 T02300167  RH  071%=      5-min Rain = 0
KPT1 050720Z 00005KT 23/17 A2997 RMK A01 T02310167  RH  071%=      5-min Rain = 0
KPT1 050725Z 01006KT 23/17 A2997 RMK A01 T02290166  RH  071%=      5-min Rain = 0
KPT1 050730Z 01004KT 23/17 A2997 RMK A01 T02280166  RH  071%=      5-min Rain = 0
KPT1 050735Z 01005KT 23/17 A2997 RMK A01 T02260166  RH  072%=      5-min Rain = 0
KPT1 050740Z 01004KT 23/17 A2997 RMK A01 T02260166  RH  072%=      5-min Rain = 0
KPT1 050745Z 00003KT 23/17 A2998 RMK A01 T02260166  RH  072%=      5-min Rain = 0
KPT1 050750Z 00003KT 23/17 A2998 RMK A01 T02270166  RH  072%=      5-min Rain = 0
KPT1 050755Z 36003KT 23/17 A2998 RMK A01 T02270165  RH  071%=      5-min Rain = 0
KPT1 050800Z 35004KT 23/17 A2998 RMK A01 T02270165  RH  072%=      5-min Rain = 0
KPT1 050805Z 33005KT 23/17 A2999 RMK A01 T02280167  RH  072%=      5-min Rain = 0
KPT1 050810Z 32013G25KT 23/17 A3002 RMK A01 T02300167  RH  071%=      5-min Rain = 0
KPT1 050815Z 33017G23KT 24/16 A3003 RMK A01 T02400164  RH  065%=      5-min Rain = 0
KPT1 050820Z 34013G21KT 25/16 A3003 RMK A01 T02510164  RH  061%=      5-min Rain = 0
KPT1 050825Z 34014G21KT 26/16 A3004 RMK A01 T02590164  RH  059%=      5-min Rain = 0
KPT1 050830Z 34013G18KT 26/16 A3004 RMK A01 T02610164  RH  058%=      5-min Rain = 0
KPT1 050835Z 35014G33KT 26/17 A3004 RMK A01 T02610167  RH  059%=      5-min Rain = 0
KPT1 050840Z 34018G30KT 24/17 A3005 RMK A01 T02370167  RH  068%=      5-min Rain = 0.01
KPT1 050845Z 34017G22KT 23/17 A3005 RMK A01 T02280167  RH  072%=      5-min Rain = 0.01
KPT1 050850Z 35015G22KT 23/16 A3005 RMK A01 T02290164  RH  070%=      5-min Rain = 0
KPT1 050855Z 35013G19KT 23/16 A3005 RMK A01 T02290163  RH  070%=      5-min Rain = 0
KPT1 050900Z 34012G18KT 23/16 A3004 RMK A01 T02310162  RH  068%=      5-min Rain = 0
KPT1 050905Z 34012G17KT 23/16 A3004 RMK A01 T02300161  RH  068%=      5-min Rain = 0
KPT1 050910Z 34014G19KT 23/16 A3004 RMK A01 T02320158  RH  066%=      5-min Rain = 0
KPT1 050915Z 35014G19KT 23/16 A3004 RMK A01 T02320157  RH  066%=      5-min Rain = 0
KPT1 050920Z 35014G20KT 23/16 A3004 RMK A01 T02330155  RH  064%=      5-min Rain = 0
KPT1 050925Z 34014G19KT 23/15 A3004 RMK A01 T02340153  RH  063%=      5-min Rain = 0
KPT1 050930Z 34014KT 24/15 A3004 RMK A01 T02350152  RH  062%=      5-min Rain = 0
KPT1 050935Z 35015G20KT 24/15 A3004 RMK A01 T02350151  RH  062%=      5-min Rain = 0
KPT1 050940Z 34013G18KT 23/15 A3004 RMK A01 T02340152  RH  062%=      5-min Rain = 0
KPT1 050945Z 35012G17KT 23/15 A3004 RMK A01 T02340151  RH  062%=      5-min Rain = 0
KPT1 050950Z 35013KT 23/15 A3003 RMK A01 T02340151  RH  062%=      5-min Rain = 0
KPT1 050955Z 35011G16KT 23/15 A3003 RMK A01 T02330151  RH  062%=      5-min Rain = 0
KPT1 051000Z 35009G15KT 23/15 A3003 RMK A01 T02330151  RH  063%=      5-min Rain = 0
KPT1 051005Z 36009G14KT 23/15 A3002 RMK A01 T02320151  RH  063%=      5-min Rain = 0
KPT1 051010Z 00009G14KT 23/15 A3002 RMK A01 T02320151  RH  063%=      5-min Rain = 0
KPT1 051015Z 36007KT 23/15 A3001 RMK A01 T02320152  RH  063%=      5-min Rain = 0
KPT1 051020Z 00006KT 23/15 A3001 RMK A01 T02310152  RH  064%=      5-min Rain = 0
KPT1 051025Z 34005KT 23/15 A3001 RMK A01 T02290152  RH  065%=      5-min Rain = 0
KPT1 051030Z 34004KT 23/15 A3001 RMK A01 T02290153  RH  065%=      5-min Rain = 0
KPT1 051035Z 35004KT 23/15 A30 RMK A01 T02270153  RH  066%=      5-min Rain = 0
KPT1 051040Z 35004KT 23/15 A30 RMK A01 T02270152  RH  066%=      5-min Rain = 0
KPT1 051045Z 33004KT 23/15 A30 RMK A01 T02250153  RH  067%=      5-min Rain = 0
KPT1 051050Z 35004KT 23/15 A2999 RMK A01 T02250154  RH  067%=      5-min Rain = 0
KPT1 051055Z 01004KT 22/15 A2999 RMK A01 T02240154  RH  067%=      5-min Rain = 0
KPT1 051100Z 35003KT 22/15 A2999 RMK A01 T02210154  RH  069%=      5-min Rain = 0
KPT1 051105Z 34002KT 22/15 A2998 RMK A01 T02190154  RH  069%=      5-min Rain = 0
KPT1 051110Z 35002KT 22/15 A2998 RMK A01 T02210153  RH  068%=      5-min Rain = 0
KPT1 051115Z 05002KT 22/15 A2997 RMK A01 T02210153  RH  068%=      5-min Rain = 0
KPT1 051120Z 09003KT 22/16 A2997 RMK A01 T02170156  RH  071%=      5-min Rain = 0
KPT1 051125Z 09002KT 22/16 A2996 RMK A01 T02170157  RH  072%=      5-min Rain = 0
KPT1 051130Z 08002KT 22/16 A2996 RMK A01 T02170158  RH  072%=      5-min Rain = 0
KPT1 051135Z 20003KT 21/16 A2996 RMK A01 T02140161  RH  076%=      5-min Rain = 0
KPT1 051140Z 18003KT 21/16 A2996 RMK A01 T02140159  RH  074%=      5-min Rain = 0
KPT1 051145Z 13004G9KT 22/16 A2995 RMK A01 T02180158  RH  072%=      5-min Rain = 0
KPT1 051150Z 13005KT 22/16 A2995 RMK A01 T02170160  RH  074%=      5-min Rain = 0
KPT1 051155Z 13003KT 22/16 A2995 RMK A01 T02190157  RH  071%=      5-min Rain = 0
KPT1 051200Z 13002KT 22/16 A2995 RMK A01 T02210156  RH  070%=      5-min Rain = 0
KPT1 051205Z 13001KT 22/16 A2996 RMK A01 T02200155  RH  069%=      5-min Rain = 0
KPT1 051210Z 13003KT 22/15 A2996 RMK A01 T02210154  RH  069%=      5-min Rain = 0
KPT1 051215Z 16003KT 22/16 A2996 RMK A01 T02180156  RH  071%=      5-min Rain = 0
KPT1 051220Z 17003KT 22/16 A2996 RMK A01 T02170156  RH  072%=      5-min Rain = 0
KPT1 051225Z 18004KT 22/16 A2996 RMK A01 T02160159  RH  073%=      5-min Rain = 0
KPT1 051230Z 17004KT 22/16 A2996 RMK A01 T02170159  RH  073%=      5-min Rain = 0
KPT1 051235Z 16004KT 22/16 A2996 RMK A01 T02180159  RH  072%=      5-min Rain = 0
KPT1 051240Z 16005KT 22/16 A2997 RMK A01 T02190158  RH  072%=      5-min Rain = 0
KPT1 051245Z 18004KT 22/16 A2997 RMK A01 T02200158  RH  071%=      5-min Rain = 0
KPT1 051250Z 21003KT 22/16 A2997 RMK A01 T02210158  RH  071%=      5-min Rain = 0
KPT1 051255Z 19003KT 22/16 A2998 RMK A01 T02240158  RH  069%=      5-min Rain = 0
KPT1 051300Z 20001KT 23/16 A2998 RMK A01 T02260156  RH  068%=      5-min Rain = 0
KPT1 051305Z 27000KT 23/16 A2998 RMK A01 T02270160  RH  069%=      5-min Rain = 0
KPT1 051310Z 23001KT 23/17 A2998 RMK A01 T02300167  RH  071%=      5-min Rain = 0
KPT1 051315Z 32000KT 24/16 A2999 RMK A01 T02350163  RH  067%=      5-min Rain = 0
KPT1 051320Z 30001KT 24/16 A2999 RMK A01 T02420160  RH  063%=      5-min Rain = 0
KPT1 051325Z 32000KT 25/16 A2999 RMK A01 T02460158  RH  061%=      5-min Rain = 0
KPT1 051330Z 06002KT 25/16 A2999 RMK A01 T02520156  RH  058%=      5-min Rain = 0
KPT1 051335Z 02003KT 25/16 A2999 RMK A01 T02540157  RH  058%=      5-min Rain = 0
KPT1 051340Z 04004KT 25/16 A30 RMK A01 T02530160  RH  059%=      5-min Rain = 0
KPT1 051345Z 06005KT 25/16 A3001 RMK A01 T02540161  RH  059%=      5-min Rain = 0
KPT1 051350Z 06007KT 25/16 A3001 RMK A01 T02530160  RH  059%=      5-min Rain = 0
KPT1 051355Z 06008KT 25/16 A3001 RMK A01 T02540161  RH  059%=      5-min Rain = 0
KPT1 051400Z 06007KT 26/16 A3001 RMK A01 T02560163  RH  059%=      5-min Rain = 0
KPT1 051405Z 07009KT 26/16 A3002 RMK A01 T02580162  RH  058%=      5-min Rain = 0
KPT1 051410Z 06007KT 26/16 A3002 RMK A01 T02580162  RH  058%=      5-min Rain = 0
KPT1 051415Z 07009KT 26/16 A3002 RMK A01 T02580161  RH  058%=      5-min Rain = 0
KPT1 051420Z 07008KT 26/16 A3002 RMK A01 T02580163  RH  058%=      5-min Rain = 0
KPT1 051425Z 08009KT 26/16 A3002 RMK A01 T02590162  RH  058%=      5-min Rain = 0
KPT1 051430Z 06008KT 26/16 A3002 RMK A01 T02590164  RH  058%=      5-min Rain = 0
KPT1 051435Z 06008G13KT 26/16 A3002 RMK A01 T02620164  RH  057%=      5-min Rain = 0
KPT1 051440Z 06009KT 26/17 A3002 RMK A01 T02620165  RH  058%=      5-min Rain = 0
KPT1 051445Z 05010KT 26/17 A3002 RMK A01 T02640167  RH  058%=      5-min Rain = 0
KPT1 051450Z 07009KT 26/17 A3002 RMK A01 T02580166  RH  060%=      5-min Rain = 0
KPT1 051455Z 07007KT 25/17 A3002 RMK A01 T02540168  RH  062%=      5-min Rain = 0
KPT1 051500Z 06011KT 25/17 A3002 RMK A01 T02500166  RH  063%=      5-min Rain = 0
KPT1 051505Z 07009KT 26/17 A3002 RMK A01 T02580168  RH  061%=      5-min Rain = 0
KPT1 051510Z 07008KT 26/17 A3002 RMK A01 T02600169  RH  060%=      5-min Rain = 0
KPT1 051515Z 06007KT 27/17 A3002 RMK A01 T02690172  RH  058%=      5-min Rain = 0
KPT1 051520Z 07008KT 27/17 A3002 RMK A01 T02710168  RH  056%=      5-min Rain = 0
KPT1 051525Z 06008KT 27/17 A3002 RMK A01 T02730170  RH  056%=      5-min Rain = 0
KPT1 051530Z 06009KT 27/17 A3002 RMK A01 T02740167  RH  055%=      5-min Rain = 0
KPT1 051535Z 07009KT 28/17 A3001 RMK A01 T02750167  RH  054%=      5-min Rain = 0
KPT1 051540Z 06010KT 28/16 A3001 RMK A01 T02760164  RH  053%=      5-min Rain = 0
KPT1 051545Z 07010KT 28/16 A3001 RMK A01 T02770163  RH  052%=      5-min Rain = 0
KPT1 051550Z 06010KT 28/16 A3001 RMK A01 T02790162  RH  051%=      5-min Rain = 0
KPT1 051555Z 07010G16KT 28/16 A3001 RMK A01 T02790162  RH  051%=      5-min Rain = 0
KPT1 051600Z 07010G15KT 28/16 A3001 RMK A01 T02790162  RH  051%=      5-min Rain = 0
KPT1 051605Z 08010KT 28/16 A3001 RMK A01 T02830163  RH  051%=      5-min Rain = 0
KPT1 051610Z 07010G15KT 28/16 A3002 RMK A01 T02830162  RH  050%=      5-min Rain = 0
KPT1 051615Z 08009G15KT 28/16 A3002 RMK A01 T02840160  RH  049%=      5-min Rain = 0
KPT1 051620Z 07010G15KT 29/16 A3002 RMK A01 T02880162  RH  049%=      5-min Rain = 0
KPT1 051625Z 08010KT 29/16 A3002 RMK A01 T02890159  RH  048%=      5-min Rain = 0
KPT1 051630Z 07011KT 29/16 A3002 RMK A01 T02880159  RH  048%=      5-min Rain = 0
KPT1 051635Z 08009G14KT 29/16 A3002 RMK A01 T02920162  RH  048%=      5-min Rain = 0
KPT1 051640Z 08009G15KT 30/16 A3002 RMK A01 T02960162  RH  046%=      5-min Rain = 0
KPT1 051645Z 08010G15KT 29/16 A3002 RMK A01 T02940159  RH  046%=      5-min Rain = 0
KPT1 051650Z 07011KT 30/16 A3002 RMK A01 T02950158  RH  046%=      5-min Rain = 0
KPT1 051655Z 07012KT 30/16 A3001 RMK A01 T02970157  RH  045%=      5-min Rain = 0
KPT1 051700Z 07011G16KT 30/16 A3001 RMK A01 T02970159  RH  045%=      5-min Rain = 0
KPT1 051705Z 07010KT 30/16 A3001 RMK A01 T02980159  RH  045%=      5-min Rain = 0
KPT1 051710Z 06012G18KT 30/16 A3001 RMK A01 T03010158  RH  044%=      5-min Rain = 0
KPT1 051715Z 07012G19KT 30/16 A3001 RMK A01 T02980157  RH  045%=      5-min Rain = 0
KPT1 051720Z 06012G17KT 30/16 A3001 RMK A01 T03030157  RH  043%=      5-min Rain = 0
KPT1 051725Z 06010G16KT 31/16 A3001 RMK A01 T03050160  RH  044%=      5-min Rain = 0
KPT1 051730Z 06010KT 31/16 A3001 RMK A01 T03060160  RH  043%=      5-min Rain = 0
KPT1 051735Z 06009KT 31/16 A3001 RMK A01 T03070159  RH  043%=      5-min Rain = 0
KPT1 051740Z 07011G19KT 31/16 A3001 RMK A01 T03080159  RH  042%=      5-min Rain = 0
KPT1 051745Z 08009G15KT 31/16 A30 RMK A01 T03070160  RH  043%=      5-min Rain = 0
KPT1 051750Z 08010G15KT 31/16 A30 RMK A01 T03110159  RH  042%=      5-min Rain = 0
KPT1 051755Z 06009G14KT 32/16 A30 RMK A01 T03160160  RH  041%=      5-min Rain = 0
KPT1 051800Z 08009G14KT 32/16 A30 RMK A01 T03200159  RH  040%=      5-min Rain = 0
KPT1 051805Z 09007G12KT 32/16 A30 RMK A01 T03170156  RH  040%=      5-min Rain = 0
KPT1 051810Z 08010G15KT 32/16 A30 RMK A01 T03150155  RH  040%=      5-min Rain = 0
KPT1 051815Z 07009G14KT 31/16 A30 RMK A01 T03140157  RH  040%=      5-min Rain = 0
KPT1 051820Z 07009KT 32/16 A2999 RMK A01 T03170158  RH  040%=      5-min Rain = 0
KPT1 051825Z 11010G15KT 32/16 A2999 RMK A01 T03180162  RH  041%=      5-min Rain = 0
KPT1 051830Z 10010G15KT 32/16 A2999 RMK A01 T03170162  RH  041%=      5-min Rain = 0
KPT1 051835Z 09007KT 32/16 A2999 RMK A01 T03180162  RH  041%=      5-min Rain = 0
KPT1 051840Z 08008G14KT 32/16 A2999 RMK A01 T03200161  RH  040%=      5-min Rain = 0
KPT1 051845Z 07008G13KT 32/16 A2999 RMK A01 T03170160  RH  041%=      5-min Rain = 0
KPT1 051850Z 09008G16KT 32/16 A2998 RMK A01 T03210162  RH  040%=      5-min Rain = 0
KPT1 051855Z 06008G13KT 32/16 A2998 RMK A01 T03200160  RH  040%=      5-min Rain = 0
KPT1 051900Z 06008KT 32/16 A2998 RMK A01 T03190162  RH  041%=      5-min Rain = 0
KPT1 051905Z 08009KT 31/16 A2998 RMK A01 T03070158  RH  043%=      5-min Rain = 0
KPT1 051910Z 06007KT 32/16 A2998 RMK A01 T03210160  RH  040%=      5-min Rain = 0
KPT1 051915Z 09008G15KT 33/16 A2998 RMK A01 T03260164  RH  040%=      5-min Rain = 0
KPT1 051920Z 10008KT 32/16 A2998 RMK A01 T03150160  RH  041%=      5-min Rain = 0
KPT1 051925Z 11006G13KT 32/16 A2997 RMK A01 T03230162  RH  040%=      5-min Rain = 0
KPT1 051930Z 08006G11KT 33/16 A2997 RMK A01 T03260158  RH  038%=      5-min Rain = 0
KPT1 051935Z 12005KT 33/16 A2997 RMK A01 T03270159  RH  038%=      5-min Rain = 0
KPT1 051940Z 10007G15KT 33/17 A2997 RMK A01 T03320165  RH  039%=      5-min Rain = 0
KPT1 051945Z 12008KT 33/17 A2997 RMK A01 T03310165  RH  039%=      5-min Rain = 0
KPT1 051950Z 14007KT 33/16 A2997 RMK A01 T03280161  RH  039%=      5-min Rain = 0
KPT1 051955Z 11004KT 33/16 A2996 RMK A01 T03290157  RH  037%=      5-min Rain = 0
KPT1 052000Z 13006KT 33/16 A2996 RMK A01 T03320162  RH  038%=      5-min Rain = 0
KPT1 052005Z 13005KT 33/17 A2996 RMK A01 T03310165  RH  039%=      5-min Rain = 0
KPT1 052010Z 09007G12KT 34/16 A2996 RMK A01 T03380163  RH  037%=      5-min Rain = 0
KPT1 052015Z 11009G14KT 34/16 A2996 RMK A01 T03350161  RH  037%=      5-min Rain = 0
KPT1 052020Z 10003KT 33/16 A2996 RMK A01 T03320158  RH  037%=      5-min Rain = 0
KPT1 052025Z 11009G15KT 34/17 A2996 RMK A01 T03350165  RH  038%=      5-min Rain = 0
KPT1 052030Z 11007G12KT 33/16 A2996 RMK A01 T03300164  RH  039%=      5-min Rain = 0
KPT1 052035Z 11007G12KT 33/16 A2995 RMK A01 T03310163  RH  038%=      5-min Rain = 0
KPT1 052040Z 10005KT 33/16 A2995 RMK A01 T03270161  RH  039%=      5-min Rain = 0
KPT1 052045Z 06004G9KT 34/16 A2995 RMK A01 T03360160  RH  037%=      5-min Rain = 0
KPT1 052050Z 09007G12KT 34/16 A2995 RMK A01 T03350161  RH  037%=      5-min Rain = 0
KPT1 052055Z 08008KT 33/16 A2995 RMK A01 T03270159  RH  038%=      5-min Rain = 0
KPT1 052100Z 06005KT 32/16 A2995 RMK A01 T03200158  RH  040%=      5-min Rain = 0
KPT1 052105Z 13004KT 33/16 A2994 RMK A01 T03270160  RH  038%=      5-min Rain = 0
KPT1 052110Z 16005KT 34/16 A2994 RMK A01 T03360159  RH  036%=      5-min Rain = 0
KPT1 052115Z 16004KT 34/16 A2994 RMK A01 T03390159  RH  036%=      5-min Rain = 0
KPT1 052120Z 12004KT 34/16 A2994 RMK A01 T03390158  RH  036%=      5-min Rain = 0
KPT1 052125Z 13004G10KT 33/16 A2993 RMK A01 T03320156  RH  037%=      5-min Rain = 0
KPT1 052130Z 14007KT 34/16 A2993 RMK A01 T03370157  RH  036%=      5-min Rain = 0
KPT1 052135Z 12005G10KT 34/16 A2993 RMK A01 T03390159  RH  036%=      5-min Rain = 0
KPT1 052140Z 14005G10KT 34/16 A2993 RMK A01 T03390156  RH  035%=      5-min Rain = 0
KPT1 052145Z 13007KT 34/16 A2993 RMK A01 T03400156  RH  035%=      5-min Rain = 0
KPT1 052150Z 13005G10KT 34/15 A2992 RMK A01 T03410154  RH  034%=      5-min Rain = 0
KPT1 052155Z 12005KT 34/15 A2992 RMK A01 T03400154  RH  034%=      5-min Rain = 0
KPT1 052200Z 12007G12KT 34/15 A2992 RMK A01 T03410153  RH  034%=      5-min Rain = 0
KPT1 052205Z 15005KT 34/15 A2991 RMK A01 T03430151  RH  033%=      5-min Rain = 0
KPT1 052210Z 15006KT 34/15 A2991 RMK A01 T03420149  RH  033%=      5-min Rain = 0
KPT1 052215Z 15004G9KT 34/15 A2991 RMK A01 T03420149  RH  033%=      5-min Rain = 0
KPT1 052220Z 11003G8KT 34/15 A299 RMK A01 T03410148  RH  033%=      5-min Rain = 0
KPT1 052225Z 21003KT 35/15 A299 RMK A01 T03470151  RH  032%=      5-min Rain = 0
KPT1 052230Z 15006KT 35/15 A299 RMK A01 T03460151  RH  032%=      5-min Rain = 0
KPT1 052235Z 13008KT 35/15 A299 RMK A01 T03450150  RH  032%=      5-min Rain = 0
KPT1 052240Z 09005G10KT 34/15 A299 RMK A01 T03440148  RH  032%=      5-min Rain = 0
KPT1 052245Z 16004G9KT 35/15 A2989 RMK A01 T03460148  RH  032%=      5-min Rain = 0
KPT1 052250Z 18004KT 35/15 A2989 RMK A01 T03470148  RH  032%=      5-min Rain = 0
KPT1 052255Z 09007G12KT 35/15 A2989 RMK A01 T03490151  RH  032%=      5-min Rain = 0
KPT1 052300Z 07007G13KT 34/15 A2989 RMK A01 T03440149  RH  033%=      5-min Rain = 0
KPT1 052305Z 07007KT 34/15 A2989 RMK A01 T03420150  RH  033%=      5-min Rain = 0
KPT1 052310Z 11006KT 34/15 A2989 RMK A01 T03370148  RH  034%=      5-min Rain = 0
KPT1 052315Z 11006KT 33/15 A2989 RMK A01 T03320146  RH  034%=      5-min Rain = 0
KPT1 052320Z 13005KT 33/15 A2989 RMK A01 T03300146  RH  034%=      5-min Rain = 0
KPT1 052325Z 14004KT 33/15 A2988 RMK A01 T03340149  RH  034%=      5-min Rain = 0
KPT1 052330Z 15006KT 34/15 A2988 RMK A01 T03400148  RH  033%=      5-min Rain = 0
KPT1 052335Z 13008KT 34/15 A2987 RMK A01 T03400148  RH  033%=      5-min Rain = 0
KPT1 052340Z 11006KT 34/15 A2987 RMK A01 T03400148  RH  033%=      5-min Rain = 0
KPT1 052345Z 12009G14KT 34/15 A2987 RMK A01 T03390148  RH  033%=      5-min Rain = 0
KPT1 052350Z 12008KT 34/15 A2987 RMK A01 T03380148  RH  033%=      5-min Rain = 0
KPT1 052355Z 12006G11KT 34/15 A2987 RMK A01 T03370145  RH  033%=      5-min Rain = 0
KPT1 060000Z 11008G16KT 34/15 A2987 RMK A01 T03380147  RH  033%=      5-min Rain = 0
KPT1 060005Z 12010KT 34/15 A2987 RMK A01 T03350147  RH  034%=      5-min Rain = 0
KPT1 060010Z 13007KT 34/15 A2987 RMK A01 T03350147  RH  034%=      5-min Rain = 0
KPT1 060015Z 12007KT 34/15 A2987 RMK A01 T03350146  RH  033%=      5-min Rain = 0
KPT1 060020Z 11006KT 34/15 A2988 RMK A01 T03350145  RH  033%=      5-min Rain = 0
KPT1 060025Z 13006KT 33/15 A2988 RMK A01 T03340145  RH  034%=      5-min Rain = 0
KPT1 060030Z 13007KT 33/15 A2988 RMK A01 T03280145  RH  035%=      5-min Rain = 0
KPT1 060035Z 13005KT 33/15 A2988 RMK A01 T03270146  RH  035%=      5-min Rain = 0
KPT1 060040Z 13003KT 33/15 A2988 RMK A01 T03270145  RH  035%=      5-min Rain = 0
KPT1 060045Z 12003G8KT 33/15 A2988 RMK A01 T03340146  RH  034%=      5-min Rain = 0
KPT1 060050Z 11007KT 34/14 A2988 RMK A01 T03350144  RH  033%=      5-min Rain = 0
KPT1 060055Z 09007KT 33/15 A2988 RMK A01 T03320145  RH  034%=      5-min Rain = 0
KPT1 060100Z 09008KT 33/14 A2988 RMK A01 T03290143  RH  034%=      5-min Rain = 0
KPT1 060105Z 09008KT 33/14 A2988 RMK A01 T03270144  RH  035%=      5-min Rain = 0
KPT1 060110Z 09009KT 33/14 A2988 RMK A01 T03250143  RH  035%=      5-min Rain = 0
KPT1 060115Z 09007KT 32/14 A2988 RMK A01 T03240144  RH  035%=      5-min Rain = 0
KPT1 060120Z 09008KT 32/14 A2988 RMK A01 T03220144  RH  036%=      5-min Rain = 0
KPT1 060125Z 09008G13KT 32/14 A2988 RMK A01 T03190144  RH  036%=      5-min Rain = 0
KPT1 060130Z 09009KT 32/14 A2988 RMK A01 T03170144  RH  037%=      5-min Rain = 0
KPT1 060135Z 09007KT 32/15 A2989 RMK A01 T03150145  RH  037%=      5-min Rain = 0
KPT1 060140Z 09007KT 31/14 A2989 RMK A01 T03140144  RH  037%=      5-min Rain = 0
KPT1 060145Z 10008KT 31/14 A2989 RMK A01 T03120144  RH  038%=      5-min Rain = 0
KPT1 060150Z 10007KT 31/14 A2989 RMK A01 T03110144  RH  038%=      5-min Rain = 0
KPT1 060155Z 10007KT 31/14 A299 RMK A01 T03090144  RH  038%=      5-min Rain = 0
KPT1 060200Z 10007KT 31/15 A299 RMK A01 T03080145  RH  039%=      5-min Rain = 0
KPT1 060205Z 10007KT 31/15 A299 RMK A01 T03080146  RH  039%=      5-min Rain = 0
KPT1 060210Z 09007KT 31/15 A2991 RMK A01 T03070146  RH  039%=      5-min Rain = 0
KPT1 060215Z 09006KT 31/15 A2991 RMK A01 T03070147  RH  040%=      5-min Rain = 0
KPT1 060220Z 08006KT 30/15 A2991 RMK A01 T03040148  RH  040%=      5-min Rain = 0
KPT1 060225Z 07006KT 30/15 A2991 RMK A01 T03030149  RH  041%=      5-min Rain = 0
KPT1 060230Z 08007KT 30/15 A2991 RMK A01 T03020150  RH  042%=      5-min Rain = 0
KPT1 060235Z 09006KT 30/15 A299 RMK A01 T03000151  RH  042%=      5-min Rain = 0
KPT1 060240Z 08005KT 30/15 A299 RMK A01 T02990151  RH  043%=      5-min Rain = 0
KPT1 060245Z 09007KT 30/15 A299 RMK A01 T02990151  RH  042%=      5-min Rain = 0
KPT1 060250Z 08007KT 30/15 A299 RMK A01 T03000151  RH  042%=      5-min Rain = 0
KPT1 060255Z 08008KT 30/15 A2991 RMK A01 T02990152  RH  043%=      5-min Rain = 0
KPT1 060300Z 08008KT 30/15 A2992 RMK A01 T02990152  RH  043%=      5-min Rain = 0
KPT1 060305Z 08007KT 30/15 A2992 RMK A01 T02980152  RH  043%=      5-min Rain = 0
KPT1 060310Z 08009G14KT 30/15 A2992 RMK A01 T02980150  RH  043%=      5-min Rain = 0
KPT1 060315Z 09009KT 30/15 A2992 RMK A01 T02980150  RH  043%=      5-min Rain = 0
KPT1 060320Z 09009KT 30/15 A2992 RMK A01 T02970150  RH  043%=      5-min Rain = 0
KPT1 060325Z 10010KT 30/15 A2992 RMK A01 T02970150  RH  043%=      5-min Rain = 0
KPT1 060330Z 10009KT 30/15 A2992 RMK A01 T02960150  RH  043%=      5-min Rain = 0
KPT1 060335Z 10009KT 30/15 A2992 RMK A01 T02950151  RH  043%=      5-min Rain = 0
KPT1 060340Z 11008KT 29/15 A2992 RMK A01 T02940152  RH  044%=      5-min Rain = 0
KPT1 060345Z 10007KT 29/15 A2992 RMK A01 T02930152  RH  044%=      5-min Rain = 0
KPT1 060350Z 09006KT 29/15 A2993 RMK A01 T02920153  RH  045%=      5-min Rain = 0
KPT1 060355Z 08005KT 29/15 A2993 RMK A01 T02920153  RH  045%=      5-min Rain = 0
KPT1 060400Z 09004KT 29/15 A2994 RMK A01 T02920154  RH  045%=      5-min Rain = 0
KPT1 060405Z 12003KT 29/15 A2994 RMK A01 T02920154  RH  045%=      5-min Rain = 0
KPT1 060410Z 19002KT 29/16 A2994 RMK A01 T02900155  RH  046%=      5-min Rain = 0
KPT1 060415Z 25005KT 29/16 A2995 RMK A01 T02870155  RH  047%=      5-min Rain = 0
KPT1 060420Z 25006KT 28/15 A2995 RMK A01 T02790154  RH  049%=      5-min Rain = 0
KPT1 060425Z 24006KT 28/15 A2995 RMK A01 T02790154  RH  049%=      5-min Rain = 0
KPT1 060430Z 24011G20KT 28/16 A2996 RMK A01 T02790155  RH  049%=      5-min Rain = 0
KPT1 060435Z 25018G24KT 26/16 A2996 RMK A01 T02630158  RH  055%=      5-min Rain = 0
KPT1 060440Z 25013G19KT 25/16 A2996 RMK A01 T02540161  RH  059%=      5-min Rain = 0
KPT1 060445Z 25019G28KT 24/17 A2997 RMK A01 T02430167  RH  066%=      5-min Rain = 0
KPT1 060450Z 26017G25KT 23/17 A2996 RMK A01 T02330169  RH  070%=      5-min Rain = 0
KPT1 060455Z 25015G21KT 23/18 A2997 RMK A01 T02300175  RH  075%=      5-min Rain = 0

Page generated in 0.0106 seconds.